createdAt,value
2022-10-26T03:46:46.831Z,99.90
2022-10-26T03:49:13.608Z,99.90
2022-10-26T03:51:40.349Z,99.90
2022-10-26T03:54:07.259Z,99.90
2022-10-26T03:56:33.936Z,99.90
2022-10-26T03:59:00.692Z,99.90
2022-10-26T04:01:27.374Z,99.90
2022-10-26T04:03:54.111Z,99.90
2022-10-26T04:06:20.802Z,99.90
2022-10-26T04:08:47.453Z,99.90
2022-10-26T04:11:14.121Z,99.90
2022-10-26T04:13:40.824Z,99.90
2022-10-26T04:16:07.875Z,99.90
2022-10-26T04:18:34.585Z,99.90
2022-10-26T04:21:02.233Z,99.90
2022-10-26T04:23:28.924Z,99.90
2022-10-26T04:25:55.643Z,99.90
2022-10-26T04:28:22.380Z,99.90
2022-10-26T04:30:49.097Z,99.90
2022-10-26T04:33:15.824Z,99.90
2022-10-26T04:35:43.018Z,99.90
2022-10-26T04:38:10.489Z,99.90
2022-10-26T04:40:37.222Z,99.90
2022-10-26T04:43:03.927Z,99.90
2022-10-26T04:45:31.351Z,99.90
2022-10-26T04:48:09.867Z,99.90
2022-10-26T04:50:37.431Z,99.90
2022-10-26T04:53:09.213Z,99.90
2022-10-26T04:55:36.331Z,99.90
2022-10-26T04:58:03.894Z,99.90
2022-10-26T05:00:32.918Z,99.90
2022-10-26T05:03:01.232Z,99.90
2022-10-26T05:05:28.158Z,99.90
2022-10-26T05:07:56.028Z,99.90
2022-10-26T05:10:23.274Z,99.90
2022-10-26T05:12:57.523Z,99.90
2022-10-26T05:15:24.448Z,99.90
2022-10-26T05:17:58.794Z,99.90
2022-10-26T05:20:30.142Z,99.90
2022-10-26T05:23:01.876Z,99.90
2022-10-26T05:25:31.280Z,99.90
2022-10-26T05:27:59.417Z,99.90
2022-10-26T05:30:26.550Z,99.90
2022-10-26T05:33:00.942Z,99.90
2022-10-26T05:35:27.870Z,99.90
2022-10-26T05:37:54.896Z,99.90
2022-10-26T05:40:22.049Z,99.90
2022-10-26T05:42:49.024Z,99.90
2022-10-26T05:45:18.091Z,99.90
2022-10-26T05:47:45.756Z,99.90
2022-10-26T05:50:13.388Z,99.90
2022-10-26T05:52:47.522Z,99.90
2022-10-26T05:55:16.334Z,99.90
2022-10-26T05:57:43.740Z,99.90
2022-10-26T06:00:19.955Z,99.90
2022-10-26T06:03:09.164Z,99.90
2022-10-26T06:05:56.626Z,99.90
2022-10-26T06:08:26.342Z,99.90
2022-10-26T06:10:54.545Z,99.90
2022-10-26T06:13:21.922Z,99.90
2022-10-26T06:16:28.589Z,99.90
2022-10-26T06:19:02.056Z,99.90
2022-10-26T06:21:37.402Z,99.90
2022-10-26T06:24:06.875Z,99.90
2022-10-26T06:26:43.717Z,99.90
2022-10-26T06:29:25.396Z,99.90
2022-10-26T06:31:52.096Z,99.90
2022-10-26T06:34:27.336Z,99.90
2022-10-26T06:36:57.188Z,99.90
2022-10-26T06:39:27.808Z,99.90
2022-10-26T06:41:55.487Z,99.90
2022-10-26T06:44:23.850Z,99.90
2022-10-26T06:47:06.876Z,99.90
2022-10-26T06:49:37.651Z,99.90
2022-10-26T06:52:07.501Z,99.90
2022-10-26T06:54:51.980Z,99.90
2022-10-26T06:57:21.567Z,99.90
2022-10-26T06:59:53.287Z,99.90
2022-10-26T07:02:20.342Z,99.90
2022-10-26T07:04:47.627Z,99.90
2022-10-26T07:07:18.930Z,99.90
2022-10-26T07:09:45.727Z,99.90
2022-10-26T07:12:12.589Z,99.90
2022-10-26T07:14:39.431Z,99.90
2022-10-26T07:17:06.733Z,99.90
2022-10-26T07:19:33.463Z,99.90
2022-10-26T07:22:00.334Z,99.90
2022-10-26T07:24:28.004Z,99.90
2022-10-26T07:26:56.035Z,99.90
2022-10-26T07:29:24.256Z,99.90
2022-10-26T07:31:51.855Z,99.90
2022-10-26T07:34:18.882Z,99.90
2022-10-26T07:36:45.681Z,99.90
2022-10-26T07:39:12.462Z,99.90
2022-10-26T07:41:39.238Z,99.90
2022-10-26T07:44:05.975Z,99.90
2022-10-26T07:46:32.663Z,99.90
2022-10-26T07:48:59.432Z,99.90
2022-10-26T07:51:26.151Z,99.90
2022-10-26T07:53:52.936Z,99.90
2022-10-26T07:56:19.815Z,99.90
2022-10-26T07:58:46.570Z,99.90
2022-10-26T08:01:15.248Z,99.90
2022-10-26T08:03:42.619Z,99.90
2022-10-26T08:06:10.530Z,99.90
2022-10-26T08:08:37.735Z,99.90
2022-10-26T08:11:05.045Z,99.90
2022-10-26T08:13:32.431Z,99.90
2022-10-26T08:16:00.803Z,99.90
2022-10-26T08:18:28.576Z,99.90
2022-10-26T08:21:01.836Z,99.90
2022-10-26T08:23:36.934Z,99.90
2022-10-26T08:26:04.437Z,99.90
2022-10-26T08:28:31.320Z,99.90
2022-10-26T08:30:58.130Z,99.90
2022-10-26T08:33:25.412Z,99.90
2022-10-26T08:35:56.965Z,99.90
2022-10-26T08:38:23.948Z,99.90
2022-10-26T08:40:51.831Z,99.90
2022-10-26T08:43:34.278Z,99.90
2022-10-26T08:46:23.456Z,99.90
2022-10-26T08:49:19.266Z,99.90
2022-10-26T08:51:47.492Z,99.90
2022-10-26T08:54:28.272Z,99.90
2022-10-26T08:56:59.079Z,99.10
2022-10-26T08:59:43.852Z,99.20
2022-10-26T09:02:15.617Z,98.90
2022-10-26T09:04:43.052Z,99.20
2022-10-26T09:07:36.033Z,99.90
2022-10-26T09:10:17.734Z,99.90
2022-10-26T09:12:53.426Z,99.90
2022-10-26T09:15:46.336Z,99.90
2022-10-26T09:18:21.880Z,99.90
2022-10-26T09:21:27.559Z,99.60
2022-10-26T09:24:01.239Z,97.70
2022-10-26T09:27:00.079Z,99.10
2022-10-26T09:29:36.045Z,99.90
2022-10-26T09:32:05.031Z,99.90
2022-10-26T09:34:39.431Z,99.90
2022-10-26T09:37:19.934Z,99.90
2022-10-26T09:40:08.638Z,99.90
2022-10-26T09:42:45.108Z,99.90
2022-10-26T09:45:29.608Z,99.90
2022-10-26T09:48:06.742Z,99.90
2022-10-26T09:50:40.466Z,99.90
2022-10-26T09:53:07.268Z,99.80
2022-10-26T09:55:39.297Z,99.60
2022-10-26T09:58:11.040Z,99.90
2022-10-26T10:00:38.960Z,99.90
2022-10-26T10:03:24.710Z,99.90
2022-10-26T10:05:52.690Z,99.90
2022-10-26T10:08:26.780Z,99.90
2022-10-26T10:10:58.302Z,99.90
2022-10-26T10:13:27.617Z,99.90
2022-10-26T10:15:59.323Z,99.90
2022-10-26T10:18:26.096Z,99.90
2022-10-26T10:20:55.273Z,99.90
2022-10-26T10:23:36.693Z,99.90
2022-10-26T10:26:07.986Z,99.90
2022-10-26T10:28:35.279Z,99.90
2022-10-26T10:31:05.195Z,99.90
2022-10-26T10:33:34.966Z,99.50
2022-10-26T10:36:03.940Z,96.30
2022-10-26T10:38:38.693Z,95.30
2022-10-26T10:41:06.113Z,94.30
2022-10-26T10:43:33.067Z,94.00
2022-10-26T10:46:00.160Z,93.90
2022-10-26T10:48:31.001Z,94.00
2022-10-26T10:51:05.401Z,93.70
2022-10-26T10:53:44.256Z,94.00
2022-10-26T10:56:25.933Z,94.80
2022-10-26T10:59:13.877Z,95.00
2022-10-26T11:01:48.619Z,95.40
2022-10-26T11:04:37.265Z,94.70
2022-10-26T11:07:06.158Z,95.60
2022-10-26T11:09:37.592Z,96.30
2022-10-26T11:12:14.162Z,97.40
2022-10-26T11:14:54.631Z,98.00
2022-10-26T11:17:50.212Z,98.40
2022-10-26T11:20:21.059Z,98.70
2022-10-26T11:22:55.325Z,98.90
2022-10-26T11:25:34.167Z,99.30
2022-10-26T11:28:33.530Z,98.60
2022-10-26T11:31:07.191Z,99.90
2022-10-26T11:36:30.198Z,99.80
2022-10-26T11:39:06.459Z,99.90
2022-10-26T11:41:47.168Z,99.90
2022-10-26T11:44:28.168Z,99.90
2022-10-26T11:47:00.622Z,99.90
2022-10-26T11:50:03.590Z,99.90
2022-10-26T11:52:35.154Z,99.90
2022-10-26T11:55:04.630Z,99.90
2022-10-26T11:57:35.035Z,99.90
2022-10-26T12:00:05.446Z,99.90
2022-10-26T12:05:15.851Z,99.90
2022-10-26T12:08:06.224Z,99.90
2022-10-26T12:10:34.908Z,99.90
2022-10-26T12:13:04.295Z,99.90
2022-10-26T12:18:55.990Z,99.90
2022-10-26T12:21:27.901Z,99.90
2022-10-26T12:23:58.950Z,99.90
2022-10-26T12:26:28.605Z,99.90
2022-10-26T12:29:04.269Z,99.90
2022-10-26T12:31:36.926Z,99.90
2022-10-26T12:34:05.742Z,99.90
2022-10-26T12:36:57.059Z,99.90
2022-10-26T12:39:36.830Z,99.90
2022-10-26T12:42:06.331Z,99.90
2022-10-26T12:44:33.008Z,99.90
2022-10-26T12:46:59.678Z,99.90
2022-10-26T12:50:03.863Z,99.90
2022-10-26T12:52:33.416Z,99.90
2022-10-26T12:55:12.425Z,99.90
2022-10-26T12:57:57.282Z,99.90
2022-10-26T13:00:26.411Z,99.90
2022-10-26T13:03:20.044Z,99.90
2022-10-26T13:06:04.717Z,99.90
2022-10-26T13:08:42.938Z,99.90
2022-10-26T13:11:21.526Z,99.90
2022-10-26T13:13:58.149Z,99.90
2022-10-26T13:16:27.034Z,99.90
2022-10-26T13:18:54.414Z,99.90
2022-10-26T13:21:23.447Z,99.90
2022-10-26T13:23:57.474Z,99.90
2022-10-26T13:26:28.762Z,99.90
2022-10-26T13:29:00.745Z,99.90
2022-10-26T13:31:32.943Z,99.90
2022-10-26T13:34:09.549Z,99.90
2022-10-26T13:36:54.082Z,99.90
2022-10-26T13:39:35.702Z,99.90
2022-10-26T13:42:03.390Z,99.90
2022-10-26T13:44:38.777Z,99.90
2022-10-26T13:47:10.930Z,99.90
2022-10-26T13:49:41.236Z,99.90
2022-10-26T13:52:16.322Z,99.90
2022-10-26T13:54:49.967Z,99.90
2022-10-26T13:57:35.909Z,99.90
2022-10-26T14:00:29.789Z,99.90
2022-10-26T14:02:56.386Z,99.90
2022-10-26T14:05:23.730Z,99.90
2022-10-26T14:07:58.326Z,99.90
2022-10-26T14:10:33.035Z,99.90
2022-10-26T14:13:01.057Z,99.90
2022-10-26T14:15:30.833Z,99.90
2022-10-26T14:18:00.053Z,99.90
2022-10-26T14:20:28.834Z,99.90
2022-10-26T14:22:55.653Z,99.90
2022-10-26T14:25:35.953Z,99.90
2022-10-26T14:28:23.813Z,99.90
2022-10-26T14:30:51.545Z,99.90
2022-10-26T14:33:24.299Z,99.90
2022-10-26T14:35:51.074Z,99.80
2022-10-26T14:38:23.213Z,99.00
2022-10-26T14:40:52.017Z,99.30
2022-10-26T14:43:22.831Z,99.90
2022-10-26T14:45:51.890Z,99.90
2022-10-26T14:48:30.526Z,99.90
2022-10-26T14:51:11.307Z,99.90
2022-10-26T14:53:47.462Z,99.90
2022-10-26T14:56:28.888Z,99.90
2022-10-26T14:58:56.567Z,99.90
2022-10-26T15:01:23.369Z,99.90
2022-10-26T15:03:59.745Z,99.90
2022-10-26T15:06:29.219Z,99.90
2022-10-26T15:09:00.724Z,99.90
2022-10-26T15:11:29.201Z,99.90
2022-10-26T15:13:57.297Z,99.90
2022-10-26T15:16:40.750Z,99.90
2022-10-26T15:19:10.299Z,99.90
2022-10-26T15:21:47.405Z,99.90
2022-10-26T15:24:38.465Z,99.90
2022-10-26T15:27:14.967Z,99.90
2022-10-26T15:29:52.532Z,99.90
2022-10-26T15:32:31.833Z,99.90
2022-10-26T15:35:26.545Z,99.90
2022-10-26T15:37:55.287Z,99.90
2022-10-26T15:40:22.860Z,99.90
2022-10-26T15:42:52.069Z,99.90
2022-10-26T15:45:22.696Z,99.90
2022-10-26T15:47:52.015Z,99.90
2022-10-26T15:50:22.002Z,99.90
2022-10-26T15:52:49.748Z,99.90
2022-10-26T15:55:17.645Z,99.90
2022-10-26T15:57:44.694Z,99.90
2022-10-26T16:00:15.885Z,99.90
2022-10-26T16:02:44.703Z,99.90
2022-10-26T16:05:13.150Z,99.90
2022-10-26T16:07:43.057Z,99.90
2022-10-26T16:10:18.067Z,99.90
2022-10-26T16:13:00.258Z,99.90
2022-10-26T16:15:26.895Z,99.90
2022-10-26T16:17:54.009Z,99.90
2022-10-26T16:20:23.287Z,99.90
2022-10-26T16:22:52.204Z,99.90
2022-10-26T16:25:23.394Z,99.90
2022-10-26T16:27:51.250Z,99.90
2022-10-26T16:30:19.485Z,99.90
2022-10-26T16:32:46.469Z,99.90
2022-10-26T16:35:13.935Z,99.90
2022-10-26T16:37:40.673Z,99.90
2022-10-26T16:40:08.663Z,99.90
2022-10-26T16:42:35.754Z,99.90
2022-10-26T16:45:03.325Z,99.90
2022-10-26T16:47:35.469Z,99.90
2022-10-26T16:50:03.289Z,99.90
2022-10-26T16:52:29.957Z,99.90
2022-10-26T16:54:56.854Z,99.90
2022-10-26T16:57:23.515Z,99.90
2022-10-26T16:59:50.217Z,99.90
2022-10-26T17:02:17.000Z,99.90
2022-10-26T17:04:43.775Z,99.90
2022-10-26T17:07:11.043Z,99.90
2022-10-26T17:09:37.850Z,99.90
2022-10-26T17:12:05.175Z,99.90
2022-10-26T17:14:32.633Z,99.90
2022-10-26T17:16:59.532Z,99.90
2022-10-26T17:19:26.280Z,99.90
2022-10-26T17:21:52.990Z,99.90
2022-10-26T17:24:19.674Z,99.90
2022-10-26T17:26:46.424Z,99.90
2022-10-26T17:29:13.491Z,99.90
2022-10-26T17:31:40.564Z,99.90
2022-10-26T17:34:07.390Z,99.90
2022-10-26T17:36:34.198Z,99.90
2022-10-26T17:39:01.037Z,99.90
2022-10-26T17:41:28.655Z,99.90
2022-10-26T17:43:55.399Z,99.90
2022-10-26T17:46:24.623Z,99.90
2022-10-26T17:48:58.536Z,99.90
2022-10-26T17:51:26.215Z,99.90
2022-10-26T17:53:54.069Z,99.90
2022-10-26T17:56:26.190Z,99.90
2022-10-26T17:58:58.412Z,99.90
2022-10-26T18:01:25.990Z,99.90
2022-10-26T18:03:54.261Z,99.90
2022-10-26T18:06:21.485Z,99.90
2022-10-26T18:08:48.192Z,99.90
2022-10-26T18:11:25.328Z,99.90
2022-10-26T18:13:57.336Z,99.90
2022-10-26T18:16:25.813Z,99.90
2022-10-26T18:19:01.047Z,99.90
2022-10-26T18:21:30.296Z,99.90
2022-10-26T18:23:56.923Z,99.90
2022-10-26T18:26:26.535Z,99.90
2022-10-26T18:28:53.282Z,99.90
2022-10-26T18:31:22.261Z,99.90
2022-10-26T18:33:49.213Z,99.90
2022-10-26T18:36:18.971Z,99.90
2022-10-26T18:38:49.031Z,99.90
2022-10-26T18:41:17.170Z,99.90
2022-10-26T18:43:46.500Z,99.90
2022-10-26T18:46:21.467Z,99.90
2022-10-26T18:48:48.521Z,99.90
2022-10-26T18:51:17.629Z,99.90
2022-10-26T18:53:45.905Z,99.90
2022-10-26T18:56:22.988Z,99.90
2022-10-26T18:58:55.838Z,99.90
2022-10-26T19:01:25.314Z,99.90
2022-10-26T19:03:57.125Z,99.90
2022-10-26T19:06:26.649Z,99.90
2022-10-26T19:08:53.901Z,99.90
2022-10-26T19:11:22.520Z,99.90
2022-10-26T19:13:55.200Z,99.90
2022-10-26T19:19:11.606Z,99.90
2022-10-26T19:21:38.296Z,99.90
2022-10-26T19:24:05.254Z,99.90
2022-10-26T19:26:36.895Z,99.90
2022-10-26T19:29:06.365Z,99.90
2022-10-26T19:31:33.903Z,99.90
2022-10-26T19:34:01.558Z,99.90
2022-10-26T19:36:29.158Z,99.90
2022-10-26T19:38:56.378Z,99.90
2022-10-26T19:41:25.295Z,99.90
2022-10-26T19:43:53.761Z,99.90
2022-10-26T19:46:23.061Z,99.90
2022-10-26T19:48:52.146Z,99.90
2022-10-26T19:51:19.589Z,99.90
2022-10-26T19:53:46.586Z,99.90
2022-10-26T19:56:14.464Z,99.90
2022-10-26T19:58:43.418Z,99.90
2022-10-26T20:01:11.881Z,99.90
2022-10-26T20:03:38.655Z,99.90
2022-10-26T20:06:09.149Z,99.90
2022-10-26T20:08:36.077Z,99.90
2022-10-26T20:11:03.796Z,99.90
2022-10-26T20:13:30.628Z,99.90
2022-10-26T20:15:57.802Z,99.90
2022-10-26T20:18:24.560Z,99.90
2022-10-26T20:20:51.275Z,99.90
2022-10-26T20:23:17.956Z,99.90
2022-10-26T20:25:48.316Z,99.90
2022-10-26T20:28:16.368Z,99.90
2022-10-26T20:30:43.725Z,99.90
2022-10-26T20:33:11.494Z,99.90
2022-10-26T20:35:38.873Z,99.90
2022-10-26T20:38:06.766Z,99.90
2022-10-26T20:40:34.355Z,99.90
2022-10-26T20:43:01.393Z,99.90
2022-10-26T20:45:30.301Z,99.90
2022-10-26T20:47:58.170Z,99.90
2022-10-26T20:50:27.334Z,99.90
2022-10-26T20:53:12.089Z,99.90
2022-10-26T20:56:06.382Z,99.90
2022-10-26T20:58:44.811Z,99.90
2022-10-26T21:01:29.437Z,99.90
2022-10-26T21:03:58.349Z,99.90
2022-10-26T21:06:25.882Z,99.90
2022-10-26T21:08:54.428Z,99.90
2022-10-26T21:11:22.400Z,99.90
2022-10-26T21:13:49.862Z,99.90
2022-10-26T21:16:17.337Z,99.90
2022-10-26T21:18:44.485Z,99.90
2022-10-26T21:21:11.452Z,99.90
2022-10-26T21:23:40.093Z,99.90
2022-10-26T21:26:07.920Z,99.90
2022-10-26T21:28:42.655Z,99.90
2022-10-26T21:31:11.723Z,99.90
2022-10-26T21:33:38.910Z,99.90
2022-10-26T21:36:08.534Z,99.90
2022-10-26T21:38:36.009Z,99.90
2022-10-26T21:41:17.668Z,99.90
2022-10-26T21:43:47.450Z,99.90
2022-10-26T21:46:15.513Z,99.90
2022-10-26T21:48:42.729Z,99.90
2022-10-26T21:51:13.678Z,99.90
2022-10-26T21:53:40.974Z,99.90
2022-10-26T21:56:11.903Z,99.90
2022-10-26T21:58:38.770Z,99.90
2022-10-26T22:01:10.478Z,99.90
2022-10-26T22:03:38.253Z,99.90
2022-10-26T22:06:06.484Z,99.90
2022-10-26T22:08:33.494Z,99.90
2022-10-26T22:11:15.433Z,99.90
2022-10-26T22:13:46.510Z,99.90
2022-10-26T22:16:21.910Z,99.90
2022-10-26T22:18:49.796Z,99.90
2022-10-26T22:21:18.167Z,99.90
2022-10-26T22:23:45.868Z,99.90
2022-10-26T22:26:19.312Z,99.90
2022-10-26T22:28:47.757Z,99.90
2022-10-26T22:31:37.135Z,99.90
2022-10-26T22:34:07.863Z,99.90
2022-10-26T22:36:35.422Z,99.90
2022-10-26T22:39:02.515Z,99.90
2022-10-26T22:41:29.257Z,99.90
2022-10-26T22:43:55.918Z,99.90
2022-10-26T22:46:24.808Z,99.90
2022-10-26T22:48:56.627Z,99.90
2022-10-26T22:51:24.883Z,99.90
2022-10-26T22:53:53.502Z,99.90
2022-10-26T22:56:21.223Z,99.90
2022-10-26T22:58:47.936Z,99.90
